Time;durP1;ratioP1;P1;durP2;ratioP2;P2;SDS_P1;SDS_P2;PMS_P1;PMS_P2;Temp;Humidity;BMP_temperature;BMP_pressure;BME280_temperature;BME280_humidity;BME280_pressure;Samples;Min_cycle;Max_cycle;Signal;HPM_P1;HPM_P2
2021/05/29 00:00:10;;;;;;;19.75;13.95;;;;;;;16.61;79.63;98955.96;1666249;86;21143;-72
2021/05/29 00:02:37;;;;;;;20.57;15.18;;;;;;;16.72;79.37;98956.97;1666070;86;21042;-72
2021/05/29 00:05:06;;;;;;;20.70;14.65;;;;;;;16.73;79.35;98949.30;1666083;86;21092;-71
2021/05/29 00:07:34;;;;;;;20.70;14.87;;;;;;;16.67;79.54;98951.30;1666064;86;21563;-71
2021/05/29 00:10:00;;;;;;;15.78;13.05;;;;;;;16.59;79.71;98945.45;1669731;85;21557;-76
2021/05/29 00:12:28;;;;;;;19.00;13.20;;;;;;;16.63;79.47;98956.13;1665922;86;21100;-73
2021/05/29 00:14:56;;;;;;;19.23;13.55;;;;;;;16.66;79.29;98950.95;1665075;86;21080;-74
2021/05/29 00:17:24;;;;;;;16.37;12.35;;;;;;;16.56;79.29;98948.47;1665873;86;21076;-74
2021/05/29 00:19:50;;;;;;;16.25;11.60;;;;;;;16.42;79.37;98932.61;1667132;86;21094;-75
2021/05/29 00:22:17;;;;;;;17.73;12.78;;;;;;;16.41;79.32;98926.94;1667242;86;21127;-75
2021/05/29 00:24:44;;;;;;;18.98;13.48;;;;;;;16.41;79.29;98929.61;1666994;86;21593;-74
2021/05/29 00:27:10;;;;;;;18.05;12.55;;;;;;;16.30;79.60;98929.92;1666595;86;21049;-75
2021/05/29 00:29:36;;;;;;;17.50;12.25;;;;;;;16.20;79.95;98924.25;1666394;86;21092;-75
2021/05/29 00:32:04;;;;;;;17.05;11.78;;;;;;;16.20;80.05;98918.92;1666050;86;21132;-72
2021/05/29 00:34:30;;;;;;;15.28;11.50;;;;;;;16.25;79.85;98925.07;1665557;86;21076;-73
2021/05/29 00:36:56;;;;;;;17.12;12.93;;;;;;;16.24;80.00;98918.58;1666236;85;21085;-71
2021/05/29 00:39:22;;;;;;;16.02;11.70;;;;;;;16.22;80.33;98925.41;1661915;85;21098;-71
2021/05/29 00:41:49;;;;;;;15.60;12.03;;;;;;;16.28;80.45;98922.58;1666465;84;21066;-72
2021/05/29 00:44:17;;;;;;;16.60;12.93;;;;;;;16.43;80.14;98919.58;1665145;86;21170;-72
2021/05/29 00:46:43;;;;;;;16.15;12.90;;;;;;;16.53;79.89;98920.28;1666405;86;21653;-72
2021/05/29 00:49:10;;;;;;;16.45;12.68;;;;;;;16.48;79.84;98913.27;1666071;86;21135;-72
2021/05/29 00:51:37;;;;;;;16.42;12.05;;;;;;;16.41;79.88;98915.41;1666149;86;21564;-72
2021/05/29 00:54:06;;;;;;;18.10;12.43;;;;;;;16.43;79.72;98912.91;1665864;86;21062;-71
2021/05/29 00:56:32;;;;;;;16.00;12.88;;;;;;;16.46;79.61;98916.59;1669487;85;21077;-72
2021/05/29 00:59:01;;;;;;;16.67;12.15;;;;;;;16.40;79.79;98911.92;1671313;86;21089;-72
2021/05/29 01:01:27;;;;;;;15.38;12.20;;;;;;;16.32;80.05;98907.92;1666193;86;21026;-72
2021/05/29 01:03:53;;;;;;;17.30;12.05;;;;;;;16.35;80.04;98908.91;1671112;86;21636;-72
2021/05/29 01:06:20;;;;;;;16.80;11.75;;;;;;;16.44;79.84;98905.24;1671109;85;21125;-72
2021/05/29 01:08:48;;;;;;;17.30;12.78;;;;;;;16.43;79.70;98902.23;1670579;86;21053;-72
2021/05/29 01:11:16;;;;;;;16.55;12.00;;;;;;;16.29;79.95;98905.58;1644450;86;22339;-72
2021/05/29 01:13:44;;;;;;;14.98;11.48;;;;;;;16.27;80.08;98903.59;1655334;86;21070;-72
2021/05/29 01:16:43;;;;;;;14.78;11.20;;;;;;;16.35;79.92;98898.24;1671183;86;21069;-72
2021/05/29 01:18:48;;;;;;;18.32;11.70;;;;;;;16.34;79.98;98899.23;1669101;86;21540;-72
2021/05/29 01:21:14;;;;;;;14.83;10.38;;;;;;;16.30;80.18;98895.23;1670153;86;21030;-72
2021/05/29 01:23:40;;;;;;;12.85;9.35;;;;;;;16.29;80.12;98896.23;1671267;86;21093;-72
2021/05/29 01:26:07;;;;;;;13.25;9.65;;;;;;;16.37;79.91;98890.92;1671459;86;21206;-72
2021/05/29 01:28:34;;;;;;;14.63;10.10;;;;;;;16.38;79.78;98893.90;1670450;86;21078;-73
2021/05/29 01:31:06;;;;;;;12.20;7.80;;;;;;;16.32;79.97;98879.91;1670755;86;21153;-72
2021/05/29 01:33:34;;;;;;;14.50;10.18;;;;;;;16.33;79.96;98889.56;1656718;86;21058;-72
2021/05/29 01:36:07;;;;;;;14.03;10.05;;;;;;;16.34;79.65;98889.90;1671233;86;21049;-72
2021/05/29 01:38:36;;;;;;;;;;;;;;;16.30;79.77;98890.73;1673776;85;21046;-72
2021/05/29 01:41:07;;;;;;;14.25;9.90;;;;;;;16.25;79.93;98885.56;1671402;85;20228;-72
2021/05/29 01:43:38;;;;;;;16.48;10.60;;;;;;;16.12;80.17;98888.21;1656003;86;21102;-72
2021/05/29 01:46:05;;;;;;;15.30;10.88;;;;;;;16.20;80.08;98893.58;1671389;86;21628;-72
2021/05/29 01:48:40;;;;;;;16.25;10.60;;;;;;;16.22;79.96;98891.55;1671152;86;21561;-72
2021/05/29 01:51:04;;;;;;;16.67;11.33;;;;;;;16.17;80.21;98896.55;1656691;86;21716;-73
2021/05/29 01:53:31;;;;;;;15.65;11.10;;;;;;;16.18;80.29;98890.23;1671575;86;21125;-72
2021/05/29 01:55:58;;;;;;;16.73;11.85;;;;;;;16.29;80.03;98897.57;1669109;85;21104;-72
2021/05/29 01:58:24;;;;;;;15.08;10.10;;;;;;;16.30;80.11;98905.91;1664867;86;21066;-73
2021/05/29 02:00:51;;;;;;;17.87;11.35;;;;;;;16.25;80.39;98901.58;1666123;86;21061;-72
2021/05/29 02:03:17;;;;;;;17.73;11.40;;;;;;;16.25;80.36;98896.23;1665685;86;21054;-73
2021/05/29 02:05:44;;;;;;;14.40;10.20;;;;;;;16.31;80.30;98891.58;1666564;86;21076;-73
2021/05/29 02:08:12;;;;;;;15.38;10.90;;;;;;;16.30;80.43;98888.57;1666078;84;21072;-73
2021/05/29 02:10:42;;;;;;;14.78;10.50;;;;;;;16.21;80.71;98887.25;1666236;86;21121;-72
2021/05/29 02:13:13;;;;;;;17.23;11.18;;;;;;;16.22;80.75;98887.55;1665658;86;21080;-73
2021/05/29 02:15:40;;;;;;;15.40;10.95;;;;;;;16.30;80.56;98890.73;1665990;86;21033;-73
2021/05/29 02:18:09;;;;;;;14.20;10.68;;;;;;;16.31;80.67;98894.25;1665993;86;21098;-72
2021/05/29 02:20:41;;;;;;;14.50;10.65;;;;;;;16.29;80.91;98885.56;1666042;86;21089;-73
2021/05/29 02:23:09;;;;;;;14.45;10.30;;;;;;;16.26;80.97;98878.73;1665927;86;21037;-72
2021/05/29 02:25:35;;;;;;;15.90;11.28;;;;;;;16.30;80.65;98875.23;1666420;86;21381;-73
2021/05/29 02:28:02;;;;;;;16.70;12.18;;;;;;;16.32;80.63;98876.73;1666321;86;21115;-72
2021/05/29 02:30:28;;;;;;;18.40;13.10;;;;;;;16.25;80.84;98863.72;1665136;86;21080;-72
2021/05/29 02:32:55;;;;;;;17.90;12.33;;;;;;;16.18;80.99;98870.73;1666385;86;21038;-72
2021/05/29 02:35:21;;;;;;;22.75;14.25;;;;;;;16.20;80.87;98869.56;1666214;86;21088;-72
2021/05/29 02:37:48;;;;;;;21.42;14.33;;;;;;;16.27;80.79;98871.58;1666046;86;21117;-73
2021/05/29 02:40:15;;;;;;;17.80;13.10;;;;;;;16.22;80.89;98869.39;1666053;86;21101;-73
2021/05/29 02:42:41;;;;;;;19.30;13.35;;;;;;;16.13;81.14;98873.06;1665889;85;21078;-72
2021/05/29 02:45:10;;;;;;;19.25;14.03;;;;;;;16.16;81.10;98870.91;1665697;86;21592;-73
2021/05/29 02:47:36;;;;;;;18.40;13.25;;;;;;;16.14;81.14;98887.56;1665957;86;21028;-72
2021/05/29 02:50:04;;;;;;;17.82;13.05;;;;;;;16.07;81.47;98871.05;1665303;86;21056;-72
2021/05/29 02:52:30;;;;;;;16.55;12.10;;;;;;;16.04;81.60;98865.03;1666966;86;21534;-72
2021/05/29 02:54:56;;;;;;;16.90;12.93;;;;;;;16.14;81.45;98867.55;1647546;86;21090;-72
2021/05/29 02:57:23;;;;;;;18.17;12.78;;;;;;;16.15;81.43;98871.90;1662206;86;21042;-72
2021/05/29 02:59:49;;;;;;;19.07;12.80;;;;;;;16.11;81.71;98868.38;1665765;86;21035;-72
2021/05/29 03:02:15;;;;;;;15.75;12.85;;;;;;;16.11;81.68;98869.20;1659336;86;21019;-74
2021/05/29 03:04:41;;;;;;;17.35;12.75;;;;;;;16.21;81.51;98873.91;1645037;86;21597;-74
2021/05/29 03:07:08;;;;;;;16.48;12.13;;;;;;;16.23;81.38;98864.40;1644509;87;21042;-74
2021/05/29 03:09:34;;;;;;;17.07;11.53;;;;;;;16.13;81.53;98863.22;1645199;87;21034;-74
2021/05/29 03:12:02;;;;;;;13.32;10.08;;;;;;;16.13;81.53;98867.22;1654368;86;21098;-74
2021/05/29 03:14:30;;;;;;;18.87;12.15;;;;;;;16.16;81.45;98871.39;1645197;86;21090;-74
2021/05/29 03:16:56;;;;;;;14.60;11.93;;;;;;;16.15;81.54;98873.71;1639239;87;21044;-74
2021/05/29 03:19:23;;;;;;;13.03;10.40;;;;;;;16.07;81.76;98865.20;1618724;89;21144;-74
2021/05/29 03:21:50;;;;;;;16.17;11.43;;;;;;;16.12;81.74;98864.20;1637743;87;21084;-73
2021/05/29 03:24:16;;;;;;;17.02;11.83;;;;;;;16.17;81.58;98875.22;1656472;86;21053;-74
2021/05/29 03:26:43;;;;;;;15.20;12.07;;;;;;;16.13;81.67;98863.73;1647094;86;21025;-74
2021/05/29 03:29:09;;;;;;;18.92;10.95;;;;;;;16.08;81.76;98867.39;1618645;89;21636;-74
2021/05/29 03:31:35;;;;;;;13.88;10.63;;;;;;;16.09;81.69;98864.55;1630239;87;21572;-74
2021/05/29 03:34:01;;;;;;;14.63;10.18;;;;;;;16.12;81.70;98869.55;1666560;86;21017;-74
2021/05/29 03:36:29;;;;;;;15.30;10.48;;;;;;;16.08;81.82;98872.73;1672138;84;21551;-74
2021/05/29 03:38:56;;;;;;;15.18;10.53;;;;;;;16.05;82.01;98880.05;1644970;86;21581;-74
2021/05/29 03:41:22;;;;;;;13.28;9.45;;;;;;;16.10;81.81;98880.89;1647582;86;21585;-74
2021/05/29 03:43:49;;;;;;;13.40;9.65;;;;;;;16.12;81.92;98880.21;1655175;86;21673;-74
2021/05/29 03:46:17;;;;;;;14.25;9.55;;;;;;;16.04;82.11;98879.70;1636298;87;21560;-74
2021/05/29 03:48:44;;;;;;;13.15;9.70;;;;;;;16.03;82.13;98879.87;1624150;87;21552;-75
2021/05/29 03:51:10;;;;;;;13.45;9.45;;;;;;;16.05;82.09;98877.38;1631579;86;21588;-75
2021/05/29 03:53:37;;;;;;;12.53;8.95;;;;;;;16.05;82.20;98887.23;1635128;86;21049;-76
2021/05/29 03:56:03;;;;;;;11.28;8.15;;;;;;;15.98;82.37;98878.20;1622161;86;21092;-75
2021/05/29 03:58:31;;;;;;;12.33;8.85;;;;;;;15.99;82.26;98879.36;1672215;85;21034;-74
2021/05/29 04:00:59;;;;;;;12.58;9.43;;;;;;;16.05;82.28;98882.71;1676152;85;21122;-75
2021/05/29 04:03:26;;;;;;;9.50;7.12;;;;;;;16.02;82.51;98885.72;1671431;85;21074;-76
2021/05/29 04:05:53;;;;;;;11.57;6.67;;;;;;;16.03;82.48;98891.88;1666666;86;21076;-75
2021/05/29 04:08:19;;;;;;;9.00;6.90;;;;;;;16.09;82.30;98886.38;1666710;86;21064;-74
2021/05/29 04:10:47;;;;;;;8.23;6.28;;;;;;;16.07;82.23;98887.87;1634850;88;21066;-74
2021/05/29 04:13:13;;;;;;;9.03;6.20;;;;;;;15.98;82.34;98883.53;1666852;86;21057;-74
2021/05/29 04:15:41;;;;;;;7.28;5.92;;;;;;;15.97;82.37;98891.19;1666902;86;21128;-74
2021/05/29 04:18:08;;;;;;;9.23;6.17;;;;;;;16.01;82.26;98888.53;1634558;88;21051;-74
2021/05/29 04:20:35;;;;;;;7.25;6.00;;;;;;;16.04;82.30;98885.55;1648079;85;21731;-74
2021/05/29 04:23:01;;;;;;;7.45;6.08;;;;;;;15.96;82.42;98888.19;1675614;85;21042;-74
2021/05/29 04:25:29;;;;;;;8.43;6.40;;;;;;;15.94;82.26;98885.69;1667129;86;21097;-74
2021/05/29 04:27:55;;;;;;;8.45;6.53;;;;;;;15.91;82.16;98898.51;1666809;86;21568;-74
2021/05/29 04:30:25;;;;;;;9.85;6.83;;;;;;;15.81;82.18;98895.49;1667225;86;21088;-73
2021/05/29 04:32:51;;;;;;;8.63;7.22;;;;;;;15.73;82.18;98899.45;1634518;88;21569;-74
2021/05/29 04:35:18;;;;;;;9.60;8.13;;;;;;;15.75;82.11;98897.44;1666928;86;21049;-74
2021/05/29 04:37:46;;;;;;;10.25;7.83;;;;;;;15.70;82.04;98898.42;1667218;86;21538;-74
2021/05/29 04:40:13;;;;;;;8.28;7.03;;;;;;;15.57;82.17;98898.88;1666976;86;21571;-78
2021/05/29 04:42:41;;;;;;;8.38;7.15;;;;;;;15.55;82.12;98896.39;1634502;88;21654;-78
2021/05/29 04:45:10;;;;;;;8.83;7.42;;;;;;;15.54;81.88;98899.22;1667210;86;21560;-78
2021/05/29 04:47:37;;;;;;;9.98;7.78;;;;;;;15.42;81.97;98903.98;1678317;84;21077;-74
2021/05/29 04:50:05;;;;;;;9.23;7.03;;;;;;;15.41;82.05;98898.34;1672664;84;21072;-75
2021/05/29 04:52:31;;;;;;;8.48;5.92;;;;;;;15.43;81.83;98904.33;1654920;87;21551;-74
2021/05/29 04:54:58;;;;;;;5.85;5.10;;;;;;;15.31;81.57;98908.28;1693544;84;21070;-74
2021/05/29 04:57:24;;;;;;;6.47;5.35;;;;;;;15.23;81.53;98909.08;1695158;84;21067;-74
2021/05/29 04:59:51;;;;;;;6.55;5.10;;;;;;;15.24;81.04;98916.05;1682481;84;21062;-75
2021/05/29 05:02:17;;;;;;;7.15;4.55;;;;;;;15.15;80.86;98911.68;1680560;85;21038;-75
2021/05/29 05:04:43;;;;;;;5.65;4.80;;;;;;;15.07;80.78;98913.80;1654912;85;21605;-74
2021/05/29 05:07:09;;;;;;;5.72;4.28;;;;;;;15.04;80.53;98918.13;1618665;87;21075;-75
2021/05/29 05:09:36;;;;;;;5.30;4.50;;;;;;;15.02;80.64;98919.59;1618472;87;21188;-75
2021/05/29 05:12:04;;;;;;;7.20;4.72;;;;;;;14.98;80.82;98914.75;1676952;85;21089;-76
2021/05/29 05:14:30;;;;;;;6.37;5.03;;;;;;;15.10;80.54;98926.79;1682603;84;21106;-76
2021/05/29 05:16:56;;;;;;;7.17;3.90;;;;;;;15.12;80.48;98931.48;1682597;84;21075;-76
2021/05/29 05:19:23;;;;;;;6.17;4.17;;;;;;;15.07;80.23;98925.79;1682272;85;21078;-76
2021/05/29 05:21:49;;;;;;;6.33;4.45;;;;;;;15.06;79.99;98916.13;1681898;85;21413;-76
2021/05/29 05:24:15;;;;;;;5.92;4.03;;;;;;;15.16;79.79;98931.49;1682347;84;21039;-76
2021/05/29 05:26:41;;;;;;;5.20;4.42;;;;;;;15.07;79.71;98931.11;1682344;84;21055;-75
2021/05/29 05:29:08;;;;;;;5.20;4.03;;;;;;;15.08;79.79;98923.47;1682471;84;21081;-76
2021/05/29 05:31:35;;;;;;;5.35;4.35;;;;;;;15.13;79.85;98923.83;1682551;85;21566;-76
2021/05/29 05:34:09;;;;;;;5.20;3.80;;;;;;;15.10;79.84;98930.78;1682336;85;21054;-75
2021/05/29 05:36:39;;;;;;;5.62;3.72;;;;;;;15.02;80.04;98926.25;1682120;85;21062;-76
2021/05/29 05:39:08;;;;;;;4.42;3.58;;;;;;;15.07;79.97;98933.27;1682307;85;21054;-76
2021/05/29 05:41:36;;;;;;;4.30;3.12;;;;;;;15.05;80.15;98931.75;1681666;85;21070;-76
2021/05/29 05:44:04;;;;;;;4.22;3.15;;;;;;;15.00;80.29;98934.05;1682439;85;21102;-76
2021/05/29 05:46:30;;;;;;;5.55;3.50;;;;;;;15.06;79.83;98933.42;1682424;85;21062;-76
2021/05/29 05:48:57;;;;;;;4.03;3.20;;;;;;;15.04;79.65;98937.59;1682343;84;21566;-76
2021/05/29 05:51:24;;;;;;;5.47;3.05;;;;;;;15.01;79.78;98935.25;1682588;85;21098;-73
2021/05/29 05:53:50;;;;;;;4.10;3.10;;;;;;;15.13;79.54;98938.48;1682675;84;21050;-75
2021/05/29 05:56:25;;;;;;;4.22;3.15;;;;;;;15.16;79.06;98945.31;1682826;85;21067;-75
2021/05/29 06:00:41;;;;;;;4.17;3.35;;;;;;;15.22;78.85;98948.69;1815983;79;22879;-76
2021/05/29 06:03:07;;;;;;;3.98;2.90;;;;;;;15.22;78.58;98949.51;1778526;80;21019;-76
2021/05/29 06:05:33;;;;;;;6.08;3.40;;;;;;;15.14;78.43;98950.81;1719800;83;21068;-76
2021/05/29 06:08:00;;;;;;;5.10;3.22;;;;;;;15.23;78.28;98960.51;1752013;81;21583;-76
2021/05/29 06:10:29;;;;;;;7.58;5.50;;;;;;;15.27;77.70;98955.70;1719452;83;21074;-76
2021/05/29 06:12:58;;;;;;;7.35;5.87;;;;;;;15.23;77.73;98961.02;1752693;81;21594;-75
2021/05/29 06:20:55;;;;;;;3.22;2.50;;;;;;;15.33;77.19;98963.55;1745321;81;21015;-78
2021/05/29 06:23:22;;;;;;;5.70;2.80;;;;;;;15.42;77.11;98963.92;1734978;81;21616;-77
2021/05/29 06:25:48;;;;;;;3.33;2.75;;;;;;;15.56;77.01;98967.34;1710076;83;21093;-77
2021/05/29 06:28:14;;;;;;;3.65;2.50;;;;;;;15.60;76.73;98972.34;1721296;83;21058;-75
2021/05/29 06:30:41;;;;;;;3.92;3.08;;;;;;;15.60;76.33;98966.54;1720704;81;21079;-75
2021/05/29 06:33:09;;;;;;;4.37;2.95;;;;;;;15.66;75.67;98956.55;1728576;82;21601;-77
2021/05/29 06:35:35;;;;;;;4.42;2.98;;;;;;;15.62;75.49;98969.04;1726644;83;21047;-76
2021/05/29 06:38:02;;;;;;;3.90;2.70;;;;;;;15.52;75.43;98961.98;1731724;82;21040;-78
2021/05/29 06:40:28;;;;;;;6.80;3.30;;;;;;;15.61;75.46;98969.52;1734306;81;21684;-78
2021/05/29 06:42:57;;;;;;;5.12;3.55;;;;;;;15.67;75.18;98974.72;1703305;83;21594;-76
2021/05/29 06:45:24;;;;;;;3.33;2.60;;;;;;;15.70;75.15;98973.91;1716506;83;21159;-74
2021/05/29 06:47:50;;;;;;;5.20;2.87;;;;;;;15.79;75.08;98975.27;1707718;83;21587;-74
2021/05/29 06:50:18;;;;;;;3.40;2.70;;;;;;;15.90;74.50;98973.67;1699685;83;21137;-74
2021/05/29 06:52:48;;;;;;;3.30;2.70;;;;;;;15.93;74.73;98968.01;1723451;83;21641;-75
2021/05/29 07:00:44;;;;;;;3.42;2.62;;;;;;;16.48;73.86;98967.13;1702366;84;21071;-75
2021/05/29 07:03:10;;;;;;;4.00;2.40;;;;;;;16.55;73.44;98974.82;1681886;85;21050;-75
2021/05/29 07:05:37;;;;;;;4.60;2.52;;;;;;;16.71;73.73;98970.83;1742489;81;21554;-73
2021/05/29 07:08:04;;;;;;;6.22;2.87;;;;;;;16.96;72.31;98974.02;1739086;82;21610;-73
2021/05/29 07:10:31;;;;;;;3.45;2.25;;;;;;;17.02;72.23;98982.67;1734610;81;21003;-74
2021/05/29 07:12:57;;;;;;;3.08;2.50;;;;;;;17.03;71.31;98985.20;1730246;82;21264;-73
2021/05/29 07:15:38;;;;;;;3.92;2.67;;;;;;;17.07;71.14;98984.33;1697199;83;21046;-74
2021/05/29 07:18:10;;;;;;;4.97;2.65;;;;;;;17.15;70.75;98989.69;1694627;83;21090;-73
2021/05/29 07:20:40;;;;;;;2.87;2.25;;;;;;;17.16;70.88;98991.36;1726568;82;21531;-76
2021/05/29 07:23:07;;;;;;;4.08;2.50;;;;;;;17.08;69.78;98987.34;1731271;82;21023;-76
2021/05/29 07:25:34;;;;;;;2.77;2.12;;;;;;;16.90;69.85;98987.50;1743593;82;21043;-77
2021/05/29 07:28:00;;;;;;;6.47;3.08;;;;;;;16.91;69.57;98987.05;1743691;81;21031;-75
2021/05/29 07:30:29;;;;;;;6.53;3.25;;;;;;;16.74;69.83;98988.34;1723170;81;21055;-75
2021/05/29 07:32:55;;;;;;;5.10;2.90;;;;;;;16.60;70.51;98992.98;1732440;82;21074;-76
2021/05/29 07:35:21;;;;;;;5.47;3.65;;;;;;;16.57;70.38;98990.66;1724577;82;21066;-74
2021/05/29 07:37:48;;;;;;;6.67;3.50;;;;;;;16.53;70.40;98996.34;1723289;82;21039;-74
2021/05/29 07:40:15;;;;;;;8.80;4.03;;;;;;;16.49;70.83;98998.98;1732823;82;21103;-74
2021/05/29 07:42:41;;;;;;;5.87;3.37;;;;;;;16.56;71.18;99007.19;1743944;82;21050;-74
2021/05/29 07:45:10;;;;;;;9.23;4.05;;;;;;;16.70;70.59;98993.18;1735995;82;21058;-73
2021/05/29 07:47:36;;;;;;;5.33;3.60;;;;;;;16.65;70.37;99000.00;1748367;82;21039;-73
2021/05/29 07:50:06;;;;;;;5.33;2.80;;;;;;;16.59;71.18;98999.35;1734204;82;21160;-73
2021/05/29 07:52:32;;;;;;;4.17;3.17;;;;;;;16.64;71.12;98996.51;1731818;82;21043;-73
2021/05/29 07:54:59;;;;;;;3.75;2.98;;;;;;;16.81;70.73;98991.18;1730231;82;21594;-72
2021/05/29 07:57:25;;;;;;;7.60;3.80;;;;;;;16.90;70.21;98992.02;1735934;82;21027;-72
2021/05/29 07:59:52;;;;;;;3.92;2.98;;;;;;;16.96;70.16;98990.05;1742057;81;21046;-72
2021/05/29 08:02:18;;;;;;;4.75;3.83;;;;;;;17.08;69.70;98986.02;1742336;80;21130;-74
2021/05/29 08:04:46;;;;;;;6.67;4.50;;;;;;;17.19;69.66;98993.68;1740526;81;21035;-74
2021/05/29 08:07:13;;;;;;;5.65;3.83;;;;;;;17.25;70.48;98992.67;1754631;80;21072;-75
2021/05/29 08:09:40;;;;;;;6.12;4.15;;;;;;;17.38;69.96;98998.34;1742618;81;21098;-75
2021/05/29 08:12:09;;;;;;;3.90;2.90;;;;;;;17.50;69.11;98996.95;1740475;82;21634;-74
2021/05/29 08:14:35;;;;;;;3.95;2.92;;;;;;;17.49;68.51;99001.14;1746199;81;21042;-75
2021/05/29 08:17:04;;;;;;;3.60;2.50;;;;;;;17.41;68.10;99007.34;1741836;81;21043;-75
2021/05/29 08:19:30;;;;;;;3.72;2.65;;;;;;;17.41;67.87;99016.69;1742477;82;21067;-75
2021/05/29 08:21:56;;;;;;;3.72;2.83;;;;;;;17.56;67.79;99006.62;1743207;80;21087;-75
2021/05/29 08:24:23;;;;;;;3.80;3.12;;;;;;;17.80;66.32;99016.41;1742738;81;21051;-73
2021/05/29 08:26:52;;;;;;;6.58;2.85;;;;;;;17.90;65.24;99009.53;1744966;80;21047;-74
2021/05/29 08:29:18;;;;;;;5.80;3.42;;;;;;;17.88;65.05;99012.88;1753559;81;21082;-75
2021/05/29 08:31:46;;;;;;;4.20;3.45;;;;;;;17.77;65.90;99002.88;1742689;80;21040;-78
2021/05/29 08:34:14;;;;;;;4.37;2.75;;;;;;;17.80;66.59;99005.72;1749509;80;21043;-75
2021/05/29 08:36:41;;;;;;;6.30;3.00;;;;;;;17.81;65.76;99004.23;1746755;81;21070;-85
2021/05/29 08:39:09;;;;;;;4.40;2.90;;;;;;;17.67;66.28;99006.27;1743471;80;21115;-76
2021/05/29 08:41:37;;;;;;;3.90;3.12;;;;;;;17.57;65.67;98998.94;1744857;81;21063;-74
2021/05/29 08:44:05;;;;;;;4.95;3.00;;;;;;;17.56;66.25;99010.64;1743051;80;21626;-77
2021/05/29 08:46:32;;;;;;;5.67;3.33;;;;;;;17.71;65.37;99008.95;1742420;81;21043;-76
2021/05/29 08:48:59;;;;;;;8.83;3.47;;;;;;;17.74;65.94;99013.94;1745501;80;21091;-74
2021/05/29 08:51:25;;;;;;;4.62;3.10;;;;;;;17.84;66.02;99015.08;1743160;81;21039;-76
2021/05/29 08:53:56;;;;;;;6.28;3.10;;;;;;;17.94;65.50;99006.86;1746507;81;21062;-73
2021/05/29 08:56:23;;;;;;;4.25;3.08;;;;;;;18.11;65.03;99012.48;1742320;80;21047;-75
2021/05/29 08:58:51;;;;;;;5.17;3.27;;;;;;;18.23;63.96;99015.59;1747632;81;21069;-75
2021/05/29 09:01:18;;;;;;;5.40;3.50;;;;;;;18.10;63.65;99014.81;1743371;80;21064;-75
2021/05/29 09:03:52;;;;;;;5.95;3.17;;;;;;;17.94;64.86;99020.23;1744228;81;21340;-77
2021/05/29 09:06:30;;;;;;;5.62;3.40;;;;;;;17.99;65.07;99009.36;1690985;83;21082;-76
2021/05/29 09:09:03;;;;;;;3.85;3.12;;;;;;;18.21;64.36;99012.76;1763709;80;21656;-75
2021/05/29 09:11:57;;;;;;;5.23;3.60;;;;;;;18.38;63.84;99018.36;1747686;80;21073;-76
2021/05/29 09:14:31;;;;;;;4.33;3.40;;;;;;;18.53;63.63;99013.08;1746395;81;21043;-76
2021/05/29 09:17:09;;;;;;;5.80;3.47;;;;;;;18.60;63.04;99013.20;1743945;80;21142;-75
2021/05/29 09:20:04;;;;;;;4.03;2.90;;;;;;;18.46;62.86;99014.80;1682289;84;21619;-75
2021/05/29 09:22:38;;;;;;;5.40;3.27;;;;;;;18.23;63.21;99024.13;1748495;80;21045;-74
2021/05/29 09:25:10;;;;;;;4.58;3.25;;;;;;;18.13;64.15;99023.85;1746129;81;21071;-75
2021/05/29 09:27:51;;;;;;;6.17;4.37;;;;;;;18.08;63.64;99032.05;1755881;81;21039;-74
2021/05/29 09:30:19;;;;;;;6.45;3.95;;;;;;;18.02;63.97;99033.59;1743271;80;21481;-75
2021/05/29 09:32:45;;;;;;;6.60;4.25;;;;;;;18.04;64.60;99021.38;1740367;82;21027;-76
2021/05/29 09:35:14;;;;;;;3.80;3.20;;;;;;;18.18;64.69;99024.64;1683094;83;21102;-77
2021/05/29 09:37:40;;;;;;;4.60;3.30;;;;;;;18.48;63.96;99026.99;1687458;84;21159;-74
2021/05/29 09:40:09;;;;;;;6.22;3.50;;;;;;;18.61;62.78;99017.55;1745497;80;21040;-76
2021/05/29 09:42:39;;;;;;;5.20;3.40;;;;;;;18.72;62.62;99026.52;1749523;81;21039;-77
2021/05/29 09:45:27;;;;;;;4.55;3.30;;;;;;;18.80;61.83;99022.42;1750722;80;21073;-76
2021/05/29 09:48:20;;;;;;;5.50;3.17;;;;;;;18.72;61.14;99025.66;1740943;82;21099;-75
2021/05/29 09:51:10;;;;;;;4.95;3.17;;;;;;;18.33;62.12;99029.58;1742207;81;21103;-75
2021/05/29 09:53:45;;;;;;;5.58;3.33;;;;;;;18.00;63.11;99030.25;1739818;82;21050;-75
2021/05/29 09:56:31;;;;;;;4.37;3.40;;;;;;;17.99;63.45;99036.12;1742162;80;21038;-75
2021/05/29 09:59:02;;;;;;;4.22;3.37;;;;;;;18.03;63.60;99041.11;1757362;81;21043;-75
2021/05/29 10:01:50;;;;;;;7.05;3.60;;;;;;;18.13;63.73;99033.22;1743869;81;21063;-75
2021/05/29 10:04:39;;;;;;;4.25;3.08;;;;;;;18.29;62.96;99044.84;1766659;81;21061;-76
2021/05/29 10:07:10;;;;;;;5.67;3.42;;;;;;;18.44;62.17;99039.07;1740384;82;21031;-75
2021/05/29 10:09:37;;;;;;;4.85;3.33;;;;;;;18.59;62.20;99044.48;1742615;80;21548;-75
2021/05/29 10:12:04;;;;;;;5.33;3.80;;;;;;;18.74;61.70;99045.08;1741369;81;21051;-75
2021/05/29 10:14:31;;;;;;;4.45;3.75;;;;;;;18.81;61.29;99036.63;1743910;80;21051;-75
2021/05/29 10:16:59;;;;;;;4.00;3.08;;;;;;;18.68;61.65;99046.60;1696285;84;21033;-76
2021/05/29 10:19:25;;;;;;;4.50;3.55;;;;;;;18.63;60.95;99046.30;1745811;80;21003;-77
2021/05/29 10:21:53;;;;;;;4.30;3.25;;;;;;;18.65;60.76;99047.80;1762545;81;21095;-77
2021/05/29 10:24:21;;;;;;;4.37;3.52;;;;;;;18.71;61.67;99044.92;1749919;80;21116;-75
2021/05/29 10:26:50;;;;;;;3.37;3.00;;;;;;;18.67;60.64;99046.30;1742105;80;21024;-76
2021/05/29 10:29:20;;;;;;;6.17;3.30;;;;;;;18.51;61.04;99046.70;1736831;81;21431;-77
2021/05/29 10:31:46;;;;;;;4.67;3.45;;;;;;;18.33;61.70;99052.84;1698019;83;21075;-76
2021/05/29 10:34:15;;;;;;;4.80;3.52;;;;;;;18.36;62.50;99050.33;1683590;84;21099;-76
2021/05/29 10:36:54;;;;;;;4.95;3.67;;;;;;;18.43;62.41;99047.28;1741674;80;21055;-76
2021/05/29 10:39:26;;;;;;;4.80;3.50;;;;;;;18.51;62.21;99041.34;1742022;82;21159;-75
2021/05/29 10:42:05;;;;;;;5.17;3.42;;;;;;;18.66;61.40;99042.77;1742706;81;21585;-76
2021/05/29 10:44:42;;;;;;;4.15;3.20;;;;;;;18.77;60.41;99051.41;1741310;82;21023;-75
2021/05/29 10:47:18;;;;;;;4.28;3.15;;;;;;;18.91;59.47;99045.81;1755800;80;21046;-75
2021/05/29 10:49:56;;;;;;;4.03;3.05;;;;;;;19.04;59.58;99044.72;1745126;81;21046;-77
2021/05/29 10:52:43;;;;;;;4.08;3.37;;;;;;;19.16;58.37;99039.23;1740041;80;21071;-76
2021/05/29 10:55:19;;;;;;;4.35;3.20;;;;;;;19.19;58.41;99039.89;1743505;81;21559;-78
2021/05/29 10:58:03;;;;;;;4.33;3.75;;;;;;;19.18;58.59;99045.74;1741461;80;21051;-77
2021/05/29 11:00:41;;;;;;;6.25;3.67;;;;;;;19.14;59.06;99038.59;1742297;80;21456;-76
2021/05/29 11:03:22;;;;;;;4.55;3.30;;;;;;;19.08;59.31;99042.48;1741412;81;21594;-77
2021/05/29 11:05:50;;;;;;;4.45;3.42;;;;;;;18.96;58.69;99040.75;1752665;80;21048;-76
2021/05/29 11:08:50;;;;;;;5.90;3.27;;;;;;;18.85;59.71;99041.98;1755891;81;21047;-76
2021/05/29 11:11:48;;;;;;;4.40;3.12;;;;;;;18.79;60.03;99044.86;1760219;80;20991;-76
2021/05/29 11:14:31;;;;;;;5.70;3.42;;;;;;;18.77;59.30;99044.22;1740202;82;21046;-76
2021/05/29 11:17:09;;;;;;;4.05;3.00;;;;;;;18.75;59.98;99035.52;1719140;82;21048;-75
2021/05/29 11:19:38;;;;;;;4.03;3.00;;;;;;;18.97;60.18;99041.08;1742490;82;21059;-75
2021/05/29 11:22:13;;;;;;;5.50;2.92;;;;;;;19.18;58.99;99036.88;1742612;80;21057;-77
2021/05/29 11:24:56;;;;;;;4.17;3.22;;;;;;;19.23;58.31;99035.31;1748880;81;21566;-76
2021/05/29 11:27:27;;;;;;;3.98;3.15;;;;;;;19.30;58.51;99038.13;1746555;80;21683;-75
2021/05/29 11:30:02;;;;;;;4.45;3.20;;;;;;;19.35;58.20;99038.41;1742540;82;21579;-75
2021/05/29 11:33:02;;;;;;;4.75;3.27;;;;;;;19.35;58.10;99040.23;1741753;80;21097;-75
2021/05/29 11:35:37;;;;;;;5.37;3.98;;;;;;;19.20;58.16;99037.55;1740568;82;21110;-75
2021/05/29 11:38:18;;;;;;;5.22;3.12;;;;;;;19.16;59.78;99031.71;1744641;81;21111;-76
2021/05/29 11:40:59;;;;;;;4.12;2.90;;;;;;;19.15;59.17;99038.90;1741559;82;21055;-74
2021/05/29 11:43:48;;;;;;;4.25;2.95;;;;;;;19.08;59.01;99035.30;1754585;80;21029;-77
2021/05/29 11:46:20;;;;;;;4.10;2.72;;;;;;;19.09;58.85;99036.12;1740556;81;22231;-79
2021/05/29 11:48:57;;;;;;;3.87;2.75;;;;;;;19.05;58.48;99032.95;1754781;81;21079;-78
2021/05/29 11:51:26;;;;;;;3.52;2.77;;;;;;;19.09;58.26;99040.14;1743507;80;21087;-78